sensor_id;sensor_type;location;lat;lon;timestamp;P1;durP1;ratioP1;P2;durP2;ratioP2
75542;SDS011;64129;53.508;10.476;2023-04-24T00:01:11;5.10;;;4.00;;
75542;SDS011;64129;53.508;10.476;2023-04-24T00:03:39;4.65;;;3.35;;
75542;SDS011;64129;53.508;10.476;2023-04-24T00:06:05;4.70;;;4.03;;
75542;SDS011;64129;53.508;10.476;2023-04-24T00:08:34;4.72;;;4.00;;
75542;SDS011;64129;53.508;10.476;2023-04-24T00:11:02;4.88;;;4.28;;
75542;SDS011;64129;53.508;10.476;2023-04-24T00:13:29;4.45;;;3.97;;
75542;SDS011;64129;53.508;10.476;2023-04-24T00:15:55;4.10;;;3.70;;
75542;SDS011;64129;53.508;10.476;2023-04-24T00:18:22;4.45;;;4.05;;
75542;SDS011;64129;53.508;10.476;2023-04-24T00:20:49;7.20;;;4.22;;
75542;SDS011;64129;53.508;10.476;2023-04-24T00:23:15;5.82;;;3.75;;
75542;SDS011;64129;53.508;10.476;2023-04-24T00:25:42;4.97;;;4.22;;
75542;SDS011;64129;53.508;10.476;2023-04-24T00:28:08;6.05;;;3.47;;
75542;SDS011;64129;53.508;10.476;2023-04-24T00:30:35;5.15;;;3.63;;
75542;SDS011;64129;53.508;10.476;2023-04-24T00:33:02;4.97;;;4.13;;
75542;SDS011;64129;53.508;10.476;2023-04-24T00:35:29;4.30;;;3.50;;
75542;SDS011;64129;53.508;10.476;2023-04-24T00:37:55;4.22;;;3.83;;
75542;SDS011;64129;53.508;10.476;2023-04-24T00:40:22;3.55;;;3.25;;
75542;SDS011;64129;53.508;10.476;2023-04-24T00:42:48;4.82;;;3.58;;
75542;SDS011;64129;53.508;10.476;2023-04-24T00:45:15;4.85;;;4.05;;
75542;SDS011;64129;53.508;10.476;2023-04-24T00:47:42;4.93;;;3.78;;
75542;SDS011;64129;53.508;10.476;2023-04-24T00:50:09;4.15;;;3.83;;
75542;SDS011;64129;53.508;10.476;2023-04-24T00:55:07;3.85;;;3.45;;
75542;SDS011;64129;53.508;10.476;2023-04-24T00:57:34;4.50;;;3.78;;
75542;SDS011;64129;53.508;10.476;2023-04-24T01:00:01;3.78;;;3.40;;
75542;SDS011;64129;53.508;10.476;2023-04-24T01:02:29;4.20;;;3.60;;
75542;SDS011;64129;53.508;10.476;2023-04-24T01:04:56;4.43;;;3.70;;
75542;SDS011;64129;53.508;10.476;2023-04-24T01:07:23;5.45;;;4.07;;
75542;SDS011;64129;53.508;10.476;2023-04-24T01:09:50;3.67;;;3.35;;
75542;SDS011;64129;53.508;10.476;2023-04-24T01:12:18;4.32;;;3.45;;
75542;SDS011;64129;53.508;10.476;2023-04-24T01:14:45;3.85;;;3.50;;
75542;SDS011;64129;53.508;10.476;2023-04-24T01:17:14;5.10;;;3.38;;
75542;SDS011;64129;53.508;10.476;2023-04-24T01:19:41;4.88;;;3.60;;
75542;SDS011;64129;53.508;10.476;2023-04-24T01:22:11;5.28;;;3.25;;
75542;SDS011;64129;53.508;10.476;2023-04-24T01:24:40;6.20;;;3.90;;
75542;SDS011;64129;53.508;10.476;2023-04-24T01:27:07;4.45;;;3.55;;
75542;SDS011;64129;53.508;10.476;2023-04-24T01:29:35;4.60;;;4.05;;
75542;SDS011;64129;53.508;10.476;2023-04-24T01:32:02;4.65;;;3.70;;
75542;SDS011;64129;53.508;10.476;2023-04-24T01:34:30;4.05;;;3.53;;
75542;SDS011;64129;53.508;10.476;2023-04-24T01:36:57;4.53;;;3.70;;
75542;SDS011;64129;53.508;10.476;2023-04-24T01:39:24;3.63;;;2.92;;
75542;SDS011;64129;53.508;10.476;2023-04-24T01:41:52;3.75;;;3.38;;
75542;SDS011;64129;53.508;10.476;2023-04-24T01:44:19;5.88;;;3.70;;
75542;SDS011;64129;53.508;10.476;2023-04-24T01:46:46;3.97;;;3.00;;
75542;SDS011;64129;53.508;10.476;2023-04-24T01:49:13;4.38;;;3.47;;
75542;SDS011;64129;53.508;10.476;2023-04-24T01:51:40;5.40;;;3.10;;
75542;SDS011;64129;53.508;10.476;2023-04-24T01:54:06;3.63;;;3.10;;
75542;SDS011;64129;53.508;10.476;2023-04-24T01:56:34;6.03;;;3.15;;
75542;SDS011;64129;53.508;10.476;2023-04-24T01:59:04;3.85;;;3.45;;
75542;SDS011;64129;53.508;10.476;2023-04-24T02:01:34;4.20;;;2.75;;
75542;SDS011;64129;53.508;10.476;2023-04-24T02:04:04;4.43;;;3.03;;
75542;SDS011;64129;53.508;10.476;2023-04-24T02:06:34;3.20;;;2.90;;
75542;SDS011;64129;53.508;10.476;2023-04-24T02:09:01;2.95;;;2.60;;
75542;SDS011;64129;53.508;10.476;2023-04-24T02:13:56;2.70;;;2.45;;
75542;SDS011;64129;53.508;10.476;2023-04-24T02:16:22;3.33;;;2.70;;
75542;SDS011;64129;53.508;10.476;2023-04-24T02:18:49;2.65;;;2.42;;
75542;SDS011;64129;53.508;10.476;2023-04-24T02:21:16;3.00;;;2.40;;
75542;SDS011;64129;53.508;10.476;2023-04-24T02:23:42;2.65;;;2.22;;
75542;SDS011;64129;53.508;10.476;2023-04-24T02:26:11;2.88;;;2.17;;
75542;SDS011;64129;53.508;10.476;2023-04-24T02:28:38;2.55;;;2.33;;
75542;SDS011;64129;53.508;10.476;2023-04-24T02:31:04;2.90;;;1.90;;
75542;SDS011;64129;53.508;10.476;2023-04-24T02:33:32;1.85;;;1.67;;
75542;SDS011;64129;53.508;10.476;2023-04-24T02:35:58;2.17;;;1.98;;
75542;SDS011;64129;53.508;10.476;2023-04-24T02:38:25;2.00;;;1.65;;
75542;SDS011;64129;53.508;10.476;2023-04-24T02:40:52;2.35;;;1.90;;
75542;SDS011;64129;53.508;10.476;2023-04-24T02:43:18;4.05;;;1.90;;
75542;SDS011;64129;53.508;10.476;2023-04-24T02:45:45;1.80;;;1.60;;
75542;SDS011;64129;53.508;10.476;2023-04-24T02:48:11;1.65;;;1.30;;
75542;SDS011;64129;53.508;10.476;2023-04-24T02:50:38;1.40;;;1.30;;
75542;SDS011;64129;53.508;10.476;2023-04-24T02:53:05;2.28;;;1.50;;
75542;SDS011;64129;53.508;10.476;2023-04-24T02:55:31;2.28;;;1.50;;
75542;SDS011;64129;53.508;10.476;2023-04-24T02:57:58;3.75;;;2.22;;
75542;SDS011;64129;53.508;10.476;2023-04-24T03:00:24;1.50;;;1.40;;
75542;SDS011;64129;53.508;10.476;2023-04-24T03:02:51;1.65;;;1.42;;
75542;SDS011;64129;53.508;10.476;2023-04-24T03:05:17;2.13;;;1.50;;
75542;SDS011;64129;53.508;10.476;2023-04-24T03:07:44;2.30;;;1.20;;
75542;SDS011;64129;53.508;10.476;2023-04-24T03:10:11;1.80;;;1.20;;
75542;SDS011;64129;53.508;10.476;2023-04-24T03:12:38;1.50;;;1.40;;
75542;SDS011;64129;53.508;10.476;2023-04-24T03:15:04;2.22;;;1.42;;
75542;SDS011;64129;53.508;10.476;2023-04-24T03:17:31;1.50;;;1.27;;
75542;SDS011;64129;53.508;10.476;2023-04-24T03:19:58;1.77;;;1.33;;
75542;SDS011;64129;53.508;10.476;2023-04-24T03:22:25;1.92;;;1.48;;
75542;SDS011;64129;53.508;10.476;2023-04-24T03:24:51;3.47;;;1.50;;
75542;SDS011;64129;53.508;10.476;2023-04-24T03:27:18;2.00;;;1.83;;
75542;SDS011;64129;53.508;10.476;2023-04-24T03:30:04;3.22;;;1.45;;
75542;SDS011;64129;53.508;10.476;2023-04-24T03:32:41;1.63;;;1.48;;
75542;SDS011;64129;53.508;10.476;2023-04-24T03:35:10;1.70;;;1.42;;
75542;SDS011;64129;53.508;10.476;2023-04-24T03:37:38;1.83;;;1.67;;
75542;SDS011;64129;53.508;10.476;2023-04-24T03:40:27;2.60;;;1.52;;
75542;SDS011;64129;53.508;10.476;2023-04-24T03:42:56;1.60;;;1.50;;
75542;SDS011;64129;53.508;10.476;2023-04-24T03:45:23;2.90;;;1.58;;
75542;SDS011;64129;53.508;10.476;2023-04-24T03:47:50;1.40;;;1.20;;
75542;SDS011;64129;53.508;10.476;2023-04-24T03:50:17;1.92;;;1.60;;
75542;SDS011;64129;53.508;10.476;2023-04-24T03:52:44;1.40;;;1.30;;
75542;SDS011;64129;53.508;10.476;2023-04-24T03:55:19;1.20;;;1.05;;
75542;SDS011;64129;53.508;10.476;2023-04-24T03:57:47;1.40;;;1.30;;
75542;SDS011;64129;53.508;10.476;2023-04-24T04:00:20;1.38;;;1.27;;
75542;SDS011;64129;53.508;10.476;2023-04-24T04:02:54;1.88;;;1.50;;
75542;SDS011;64129;53.508;10.476;2023-04-24T04:05:21;2.78;;;1.60;;
75542;SDS011;64129;53.508;10.476;2023-04-24T04:07:47;2.17;;;1.52;;
75542;SDS011;64129;53.508;10.476;2023-04-24T04:10:14;1.60;;;1.20;;
75542;SDS011;64129;53.508;10.476;2023-04-24T04:12:41;1.67;;;1.40;;
75542;SDS011;64129;53.508;10.476;2023-04-24T04:15:07;1.60;;;1.30;;
75542;SDS011;64129;53.508;10.476;2023-04-24T04:17:34;1.33;;;1.10;;
75542;SDS011;64129;53.508;10.476;2023-04-24T04:20:04;1.45;;;1.30;;
75542;SDS011;64129;53.508;10.476;2023-04-24T04:22:36;1.42;;;1.33;;
75542;SDS011;64129;53.508;10.476;2023-04-24T04:25:06;1.58;;;1.38;;
75542;SDS011;64129;53.508;10.476;2023-04-24T04:27:34;1.50;;;1.23;;
75542;SDS011;64129;53.508;10.476;2023-04-24T04:30:07;2.15;;;1.20;;
75542;SDS011;64129;53.508;10.476;2023-04-24T04:32:44;1.48;;;1.38;;
75542;SDS011;64129;53.508;10.476;2023-04-24T04:35:12;1.13;;;1.02;;
75542;SDS011;64129;53.508;10.476;2023-04-24T04:37:38;1.35;;;1.25;;
75542;SDS011;64129;53.508;10.476;2023-04-24T04:40:24;1.48;;;1.08;;
75542;SDS011;64129;53.508;10.476;2023-04-24T04:42:57;1.15;;;1.05;;
75542;SDS011;64129;53.508;10.476;2023-04-24T04:45:27;1.23;;;1.08;;
75542;SDS011;64129;53.508;10.476;2023-04-24T04:48:14;2.33;;;1.90;;
75542;SDS011;64129;53.508;10.476;2023-04-24T04:50:43;1.30;;;0.90;;
75542;SDS011;64129;53.508;10.476;2023-04-24T04:53:10;2.05;;;1.10;;
75542;SDS011;64129;53.508;10.476;2023-04-24T04:55:38;1.58;;;0.93;;
75542;SDS011;64129;53.508;10.476;2023-04-24T04:58:09;1.08;;;0.88;;
75542;SDS011;64129;53.508;10.476;2023-04-24T05:00:36;0.77;;;0.77;;
75542;SDS011;64129;53.508;10.476;2023-04-24T05:03:12;1.20;;;1.08;;
75542;SDS011;64129;53.508;10.476;2023-04-24T05:05:44;1.13;;;0.95;;
75542;SDS011;64129;53.508;10.476;2023-04-24T05:08:13;1.08;;;0.98;;
75542;SDS011;64129;53.508;10.476;2023-04-24T05:10:45;1.02;;;0.93;;
75542;SDS011;64129;53.508;10.476;2023-04-24T05:13:11;1.13;;;1.02;;
75542;SDS011;64129;53.508;10.476;2023-04-24T05:15:39;1.30;;;1.20;;
75542;SDS011;64129;53.508;10.476;2023-04-24T05:18:06;0.70;;;0.63;;
75542;SDS011;64129;53.508;10.476;2023-04-24T05:20:33;1.30;;;1.13;;
75542;SDS011;64129;53.508;10.476;2023-04-24T05:22:59;1.13;;;1.00;;
75542;SDS011;64129;53.508;10.476;2023-04-24T05:25:27;0.80;;;0.73;;
75542;SDS011;64129;53.508;10.476;2023-04-24T05:28:02;1.38;;;0.90;;
75542;SDS011;64129;53.508;10.476;2023-04-24T05:30:29;0.80;;;0.73;;
75542;SDS011;64129;53.508;10.476;2023-04-24T05:32:56;0.80;;;0.73;;
75542;SDS011;64129;53.508;10.476;2023-04-24T05:35:23;0.85;;;0.70;;
75542;SDS011;64129;53.508;10.476;2023-04-24T05:37:49;0.50;;;0.50;;
75542;SDS011;64129;53.508;10.476;2023-04-24T05:40:16;0.82;;;0.70;;
75542;SDS011;64129;53.508;10.476;2023-04-24T05:42:43;1.40;;;0.52;;
75542;SDS011;64129;53.508;10.476;2023-04-24T05:45:10;0.70;;;0.70;;
75542;SDS011;64129;53.508;10.476;2023-04-24T05:47:42;0.80;;;0.73;;
75542;SDS011;64129;53.508;10.476;2023-04-24T05:50:10;1.27;;;0.60;;
75542;SDS011;64129;53.508;10.476;2023-04-24T05:52:37;0.77;;;0.65;;
75542;SDS011;64129;53.508;10.476;2023-04-24T05:55:12;0.80;;;0.70;;
75542;SDS011;64129;53.508;10.476;2023-04-24T05:57:41;2.33;;;0.98;;
75542;SDS011;64129;53.508;10.476;2023-04-24T06:00:07;1.52;;;0.80;;
75542;SDS011;64129;53.508;10.476;2023-04-24T06:02:47;2.53;;;1.08;;
75542;SDS011;64129;53.508;10.476;2023-04-24T06:05:13;0.45;;;0.45;;
75542;SDS011;64129;53.508;10.476;2023-04-24T06:07:41;1.02;;;0.60;;
75542;SDS011;64129;53.508;10.476;2023-04-24T06:10:08;0.43;;;0.43;;
75542;SDS011;64129;53.508;10.476;2023-04-24T06:12:41;0.82;;;0.82;;
75542;SDS011;64129;53.508;10.476;2023-04-24T06:15:13;1.42;;;0.70;;
75542;SDS011;64129;53.508;10.476;2023-04-24T06:17:56;1.42;;;0.70;;
75542;SDS011;64129;53.508;10.476;2023-04-24T06:20:24;0.90;;;0.73;;
75542;SDS011;64129;53.508;10.476;2023-04-24T06:22:51;1.45;;;1.10;;
75542;SDS011;64129;53.508;10.476;2023-04-24T06:25:18;0.95;;;0.90;;
75542;SDS011;64129;53.508;10.476;2023-04-24T06:27:45;1.77;;;1.08;;
75542;SDS011;64129;53.508;10.476;2023-04-24T06:30:12;1.65;;;0.95;;
75542;SDS011;64129;53.508;10.476;2023-04-24T06:32:39;1.17;;;0.98;;
75542;SDS011;64129;53.508;10.476;2023-04-24T06:35:06;1.10;;;1.00;;
75542;SDS011;64129;53.508;10.476;2023-04-24T06:37:34;1.73;;;1.23;;
75542;SDS011;64129;53.508;10.476;2023-04-24T06:40:00;1.23;;;1.02;;
75542;SDS011;64129;53.508;10.476;2023-04-24T06:42:27;0.93;;;0.93;;
75542;SDS011;64129;53.508;10.476;2023-04-24T06:44:54;1.25;;;1.00;;
75542;SDS011;64129;53.508;10.476;2023-04-24T06:47:21;1.17;;;1.08;;
75542;SDS011;64129;53.508;10.476;2023-04-24T06:49:47;1.30;;;0.93;;
75542;SDS011;64129;53.508;10.476;2023-04-24T06:52:14;1.10;;;0.90;;
75542;SDS011;64129;53.508;10.476;2023-04-24T06:54:41;2.40;;;1.08;;
75542;SDS011;64129;53.508;10.476;2023-04-24T06:57:08;1.75;;;0.98;;
75542;SDS011;64129;53.508;10.476;2023-04-24T06:59:34;1.20;;;0.95;;
75542;SDS011;64129;53.508;10.476;2023-04-24T07:02:01;0.90;;;0.90;;
75542;SDS011;64129;53.508;10.476;2023-04-24T07:04:27;1.20;;;1.10;;
75542;SDS011;64129;53.508;10.476;2023-04-24T07:06:54;1.73;;;1.30;;
75542;SDS011;64129;53.508;10.476;2023-04-24T07:09:22;1.30;;;1.20;;
75542;SDS011;64129;53.508;10.476;2023-04-24T07:11:49;1.17;;;0.90;;
75542;SDS011;64129;53.508;10.476;2023-04-24T07:14:17;1.40;;;1.30;;
75542;SDS011;64129;53.508;10.476;2023-04-24T07:16:44;1.45;;;1.20;;
75542;SDS011;64129;53.508;10.476;2023-04-24T07:19:11;2.63;;;1.33;;
75542;SDS011;64129;53.508;10.476;2023-04-24T07:21:39;1.85;;;1.10;;
75542;SDS011;64129;53.508;10.476;2023-04-24T07:24:06;1.73;;;1.45;;
75542;SDS011;64129;53.508;10.476;2023-04-24T07:26:37;1.50;;;1.40;;
75542;SDS011;64129;53.508;10.476;2023-04-24T07:29:05;1.58;;;1.33;;
75542;SDS011;64129;53.508;10.476;2023-04-24T07:31:32;1.88;;;1.67;;
75542;SDS011;64129;53.508;10.476;2023-04-24T07:33:59;1.33;;;1.10;;
75542;SDS011;64129;53.508;10.476;2023-04-24T07:36:25;1.35;;;1.25;;
75542;SDS011;64129;53.508;10.476;2023-04-24T07:38:53;1.40;;;1.23;;
75542;SDS011;64129;53.508;10.476;2023-04-24T07:41:20;1.48;;;1.38;;
75542;SDS011;64129;53.508;10.476;2023-04-24T07:43:47;1.75;;;1.33;;
75542;SDS011;64129;53.508;10.476;2023-04-24T07:46:14;1.75;;;1.13;;
75542;SDS011;64129;53.508;10.476;2023-04-24T07:48:41;1.92;;;1.25;;
75542;SDS011;64129;53.508;10.476;2023-04-24T07:51:07;1.05;;;0.95;;
75542;SDS011;64129;53.508;10.476;2023-04-24T07:53:36;1.25;;;1.13;;
75542;SDS011;64129;53.508;10.476;2023-04-24T07:56:02;1.60;;;1.20;;
75542;SDS011;64129;53.508;10.476;2023-04-24T07:58:29;1.67;;;1.00;;
75542;SDS011;64129;53.508;10.476;2023-04-24T08:00:55;1.10;;;1.00;;
75542;SDS011;64129;53.508;10.476;2023-04-24T08:03:22;1.83;;;1.20;;
75542;SDS011;64129;53.508;10.476;2023-04-24T08:05:48;1.20;;;1.00;;
75542;SDS011;64129;53.508;10.476;2023-04-24T08:08:17;1.33;;;0.80;;
75542;SDS011;64129;53.508;10.476;2023-04-24T08:10:44;1.02;;;0.82;;
75542;SDS011;64129;53.508;10.476;2023-04-24T08:13:10;1.05;;;1.00;;
75542;SDS011;64129;53.508;10.476;2023-04-24T08:15:37;0.80;;;0.77;;
75542;SDS011;64129;53.508;10.476;2023-04-24T08:18:04;1.02;;;0.98;;
75542;SDS011;64129;53.508;10.476;2023-04-24T08:20:30;1.55;;;0.85;;
75542;SDS011;64129;53.508;10.476;2023-04-24T08:22:57;1.00;;;0.80;;
75542;SDS011;64129;53.508;10.476;2023-04-24T08:25:24;1.17;;;0.85;;
75542;SDS011;64129;53.508;10.476;2023-04-24T08:27:50;1.65;;;1.00;;
75542;SDS011;64129;53.508;10.476;2023-04-24T08:30:17;1.30;;;0.90;;
75542;SDS011;64129;53.508;10.476;2023-04-24T08:32:44;0.73;;;0.73;;
75542;SDS011;64129;53.508;10.476;2023-04-24T08:35:10;2.53;;;0.93;;
75542;SDS011;64129;53.508;10.476;2023-04-24T08:37:37;1.85;;;0.95;;
75542;SDS011;64129;53.508;10.476;2023-04-24T08:40:05;1.98;;;1.02;;
75542;SDS011;64129;53.508;10.476;2023-04-24T08:42:36;1.17;;;1.08;;
75542;SDS011;64129;53.508;10.476;2023-04-24T08:45:03;1.15;;;0.90;;
75542;SDS011;64129;53.508;10.476;2023-04-24T08:47:30;1.30;;;1.20;;
75542;SDS011;64129;53.508;10.476;2023-04-24T08:49:57;1.40;;;1.25;;
75542;SDS011;64129;53.508;10.476;2023-04-24T08:52:25;1.60;;;1.42;;
75542;SDS011;64129;53.508;10.476;2023-04-24T08:54:54;1.70;;;1.17;;
75542;SDS011;64129;53.508;10.476;2023-04-24T08:57:21;1.95;;;1.38;;
75542;SDS011;64129;53.508;10.476;2023-04-24T08:59:48;1.40;;;1.30;;
75542;SDS011;64129;53.508;10.476;2023-04-24T09:02:15;2.08;;;1.30;;
75542;SDS011;64129;53.508;10.476;2023-04-24T09:04:42;2.08;;;1.40;;
75542;SDS011;64129;53.508;10.476;2023-04-24T09:07:10;1.30;;;1.20;;
75542;SDS011;64129;53.508;10.476;2023-04-24T09:09:38;3.00;;;1.80;;
75542;SDS011;64129;53.508;10.476;2023-04-24T09:12:06;2.53;;;1.65;;
75542;SDS011;64129;53.508;10.476;2023-04-24T09:14:33;2.28;;;2.17;;
75542;SDS011;64129;53.508;10.476;2023-04-24T09:16:59;2.35;;;2.15;;
75542;SDS011;64129;53.508;10.476;2023-04-24T09:19:26;2.63;;;2.42;;
75542;SDS011;64129;53.508;10.476;2023-04-24T09:21:53;2.90;;;2.60;;
75542;SDS011;64129;53.508;10.476;2023-04-24T09:24:21;3.00;;;2.45;;
75542;SDS011;64129;53.508;10.476;2023-04-24T09:26:56;3.05;;;2.40;;
75542;SDS011;64129;53.508;10.476;2023-04-24T09:29:24;2.80;;;2.60;;
75542;SDS011;64129;53.508;10.476;2023-04-24T09:31:51;4.35;;;2.63;;
75542;SDS011;64129;53.508;10.476;2023-04-24T09:34:25;3.45;;;2.80;;
75542;SDS011;64129;53.508;10.476;2023-04-24T09:36:53;3.30;;;3.00;;
75542;SDS011;64129;53.508;10.476;2023-04-24T09:39:20;3.25;;;2.65;;
75542;SDS011;64129;53.508;10.476;2023-04-24T09:41:56;4.55;;;3.40;;
75542;SDS011;64129;53.508;10.476;2023-04-24T09:46:55;3.50;;;3.20;;
75542;SDS011;64129;53.508;10.476;2023-04-24T09:49:26;5.72;;;4.28;;
75542;SDS011;64129;53.508;10.476;2023-04-24T09:52:07;4.35;;;3.95;;
75542;SDS011;64129;53.508;10.476;2023-04-24T09:54:36;4.30;;;3.83;;
75542;SDS011;64129;53.508;10.476;2023-04-24T09:57:03;3.10;;;2.80;;
75542;SDS011;64129;53.508;10.476;2023-04-24T09:59:31;4.72;;;3.55;;
75542;SDS011;64129;53.508;10.476;2023-04-24T10:01:57;4.13;;;3.72;;
75542;SDS011;64129;53.508;10.476;2023-04-24T10:04:27;3.63;;;3.15;;
75542;SDS011;64129;53.508;10.476;2023-04-24T10:06:55;3.35;;;3.05;;
75542;SDS011;64129;53.508;10.476;2023-04-24T10:09:23;3.90;;;3.50;;
75542;SDS011;64129;53.508;10.476;2023-04-24T10:11:52;3.15;;;2.75;;
75542;SDS011;64129;53.508;10.476;2023-04-24T10:14:20;4.72;;;3.30;;
75542;SDS011;64129;53.508;10.476;2023-04-24T10:16:52;4.53;;;3.15;;
75542;SDS011;64129;53.508;10.476;2023-04-24T10:19:20;4.85;;;3.10;;
75542;SDS011;64129;53.508;10.476;2023-04-24T10:21:47;4.55;;;3.28;;
75542;SDS011;64129;53.508;10.476;2023-04-24T10:24:17;4.05;;;2.92;;
75542;SDS011;64129;53.508;10.476;2023-04-24T10:26:46;3.15;;;2.75;;
75542;SDS011;64129;53.508;10.476;2023-04-24T10:29:15;2.88;;;2.22;;
75542;SDS011;64129;53.508;10.476;2023-04-24T10:31:43;2.92;;;2.03;;
75542;SDS011;64129;53.508;10.476;2023-04-24T10:34:14;3.33;;;2.58;;
75542;SDS011;64129;53.508;10.476;2023-04-24T10:36:43;3.13;;;2.80;;
75542;SDS011;64129;53.508;10.476;2023-04-24T10:39:17;4.63;;;3.03;;
75542;SDS011;64129;53.508;10.476;2023-04-24T10:41:45;4.72;;;4.32;;
75542;SDS011;64129;53.508;10.476;2023-04-24T10:44:15;4.47;;;3.53;;
75542;SDS011;64129;53.508;10.476;2023-04-24T10:46:45;5.07;;;3.60;;
75542;SDS011;64129;53.508;10.476;2023-04-24T10:49:19;4.18;;;3.78;;
75542;SDS011;64129;53.508;10.476;2023-04-24T10:51:54;5.57;;;4.20;;
75542;SDS011;64129;53.508;10.476;2023-04-24T10:54:27;4.22;;;3.55;;
75542;SDS011;64129;53.508;10.476;2023-04-24T10:59:44;4.80;;;3.47;;
75542;SDS011;64129;53.508;10.476;2023-04-24T11:02:13;6.05;;;4.30;;
75542;SDS011;64129;53.508;10.476;2023-04-24T11:04:41;5.35;;;4.28;;
75542;SDS011;64129;53.508;10.476;2023-04-24T11:07:11;5.60;;;4.03;;
75542;SDS011;64129;53.508;10.476;2023-04-24T11:09:38;5.70;;;4.40;;
75542;SDS011;64129;53.508;10.476;2023-04-24T11:12:08;5.22;;;4.72;;
75542;SDS011;64129;53.508;10.476;2023-04-24T11:17:32;6.88;;;4.88;;
75542;SDS011;64129;53.508;10.476;2023-04-24T11:20:00;6.88;;;4.10;;
75542;SDS011;64129;53.508;10.476;2023-04-24T11:22:33;6.38;;;4.65;;
75542;SDS011;64129;53.508;10.476;2023-04-24T11:25:01;5.53;;;4.90;;
75542;SDS011;64129;53.508;10.476;2023-04-24T11:27:31;7.07;;;5.03;;
75542;SDS011;64129;53.508;10.476;2023-04-24T11:30:05;6.95;;;4.82;;
75542;SDS011;64129;53.508;10.476;2023-04-24T11:37:41;4.78;;;4.10;;
75542;SDS011;64129;53.508;10.476;2023-04-24T11:40:10;5.03;;;4.22;;
75542;SDS011;64129;53.508;10.476;2023-04-24T11:42:41;5.68;;;4.50;;
75542;SDS011;64129;53.508;10.476;2023-04-24T11:47:37;5.22;;;4.63;;
75542;SDS011;64129;53.508;10.476;2023-04-24T11:50:04;4.85;;;4.03;;
75542;SDS011;64129;53.508;10.476;2023-04-24T11:52:33;5.00;;;4.25;;
75542;SDS011;64129;53.508;10.476;2023-04-24T11:55:03;5.18;;;4.32;;
75542;SDS011;64129;53.508;10.476;2023-04-24T11:57:30;4.60;;;3.90;;
75542;SDS011;64129;53.508;10.476;2023-04-24T12:00:01;4.30;;;3.90;;
75542;SDS011;64129;53.508;10.476;2023-04-24T12:02:37;7.82;;;3.80;;
75542;SDS011;64129;53.508;10.476;2023-04-24T12:05:05;3.63;;;3.22;;
75542;SDS011;64129;53.508;10.476;2023-04-24T12:07:32;3.67;;;3.22;;
75542;SDS011;64129;53.508;10.476;2023-04-24T12:10:08;4.82;;;3.55;;
75542;SDS011;64129;53.508;10.476;2023-04-24T12:12:35;3.85;;;3.42;;
75542;SDS011;64129;53.508;10.476;2023-04-24T12:15:06;4.65;;;3.33;;
75542;SDS011;64129;53.508;10.476;2023-04-24T12:17:34;3.75;;;3.28;;
75542;SDS011;64129;53.508;10.476;2023-04-24T12:20:03;4.93;;;4.30;;
75542;SDS011;64129;53.508;10.476;2023-04-24T12:22:50;4.05;;;3.67;;
75542;SDS011;64129;53.508;10.476;2023-04-24T12:25:19;4.40;;;3.63;;
75542;SDS011;64129;53.508;10.476;2023-04-24T12:27:52;4.60;;;3.63;;
75542;SDS011;64129;53.508;10.476;2023-04-24T12:30:44;3.72;;;3.33;;
75542;SDS011;64129;53.508;10.476;2023-04-24T12:33:18;3.95;;;3.42;;
75542;SDS011;64129;53.508;10.476;2023-04-24T12:35:46;3.25;;;2.95;;
75542;SDS011;64129;53.508;10.476;2023-04-24T12:38:22;3.85;;;3.47;;
75542;SDS011;64129;53.508;10.476;2023-04-24T12:43:32;3.70;;;3.17;;
75542;SDS011;64129;53.508;10.476;2023-04-24T12:45:59;3.03;;;2.80;;
75542;SDS011;64129;53.508;10.476;2023-04-24T12:48:26;3.60;;;3.08;;
75542;SDS011;64129;53.508;10.476;2023-04-24T12:50:54;3.63;;;3.00;;
75542;SDS011;64129;53.508;10.476;2023-04-24T12:53:21;3.25;;;2.72;;
75542;SDS011;64129;53.508;10.476;2023-04-24T12:55:48;3.78;;;2.80;;
75542;SDS011;64129;53.508;10.476;2023-04-24T12:58:19;3.22;;;2.92;;
75542;SDS011;64129;53.508;10.476;2023-04-24T13:00:46;6.03;;;3.65;;
75542;SDS011;64129;53.508;10.476;2023-04-24T13:03:14;4.30;;;2.63;;
75542;SDS011;64129;53.508;10.476;2023-04-24T13:05:41;3.47;;;3.17;;
75542;SDS011;64129;53.508;10.476;2023-04-24T13:08:09;3.95;;;2.50;;
75542;SDS011;64129;53.508;10.476;2023-04-24T13:10:36;4.10;;;2.60;;
75542;SDS011;64129;53.508;10.476;2023-04-24T13:13:02;5.43;;;2.53;;
75542;SDS011;64129;53.508;10.476;2023-04-24T13:15:29;3.75;;;2.80;;
75542;SDS011;64129;53.508;10.476;2023-04-24T13:17:56;2.70;;;2.25;;
75542;SDS011;64129;53.508;10.476;2023-04-24T13:20:22;4.22;;;2.63;;
75542;SDS011;64129;53.508;10.476;2023-04-24T13:22:49;3.10;;;2.33;;
75542;SDS011;64129;53.508;10.476;2023-04-24T13:25:15;3.72;;;2.28;;
75542;SDS011;64129;53.508;10.476;2023-04-24T13:27:43;2.92;;;2.50;;
75542;SDS011;64129;53.508;10.476;2023-04-24T13:30:09;2.60;;;2.40;;
75542;SDS011;64129;53.508;10.476;2023-04-24T13:32:36;3.60;;;2.50;;
75542;SDS011;64129;53.508;10.476;2023-04-24T13:35:03;2.70;;;2.40;;
75542;SDS011;64129;53.508;10.476;2023-04-24T13:37:30;3.65;;;2.63;;
75542;SDS011;64129;53.508;10.476;2023-04-24T13:39:56;3.10;;;2.42;;
75542;SDS011;64129;53.508;10.476;2023-04-24T13:42:23;2.50;;;1.95;;
75542;SDS011;64129;53.508;10.476;2023-04-24T13:44:49;2.22;;;1.85;;
75542;SDS011;64129;53.508;10.476;2023-04-24T13:47:17;1.60;;;1.50;;
75542;SDS011;64129;53.508;10.476;2023-04-24T13:49:43;2.53;;;1.95;;
75542;SDS011;64129;53.508;10.476;2023-04-24T13:52:10;2.30;;;2.10;;
75542;SDS011;64129;53.508;10.476;2023-04-24T13:54:36;1.40;;;1.30;;
75542;SDS011;64129;53.508;10.476;2023-04-24T13:57:03;2.67;;;2.40;;
75542;SDS011;64129;53.508;10.476;2023-04-24T13:59:30;2.30;;;2.10;;
75542;SDS011;64129;53.508;10.476;2023-04-24T14:01:56;2.42;;;2.22;;
75542;SDS011;64129;53.508;10.476;2023-04-24T14:04:23;2.47;;;1.90;;
75542;SDS011;64129;53.508;10.476;2023-04-24T14:06:50;2.25;;;2.13;;
75542;SDS011;64129;53.508;10.476;2023-04-24T14:09:16;2.50;;;2.30;;
75542;SDS011;64129;53.508;10.476;2023-04-24T14:11:43;3.20;;;2.50;;
75542;SDS011;64129;53.508;10.476;2023-04-24T14:14:09;2.30;;;2.10;;
75542;SDS011;64129;53.508;10.476;2023-04-24T14:16:36;2.33;;;2.13;;
75542;SDS011;64129;53.508;10.476;2023-04-24T14:19:03;2.80;;;2.03;;
75542;SDS011;64129;53.508;10.476;2023-04-24T14:21:32;1.77;;;1.67;;
75542;SDS011;64129;53.508;10.476;2023-04-24T14:23:58;2.25;;;1.90;;
75542;SDS011;64129;53.508;10.476;2023-04-24T14:26:28;2.00;;;1.88;;
75542;SDS011;64129;53.508;10.476;2023-04-24T14:28:55;2.60;;;2.40;;
75542;SDS011;64129;53.508;10.476;2023-04-24T14:31:26;2.50;;;2.30;;
75542;SDS011;64129;53.508;10.476;2023-04-24T14:33:52;3.10;;;1.70;;
75542;SDS011;64129;53.508;10.476;2023-04-24T14:36:19;1.92;;;1.80;;
75542;SDS011;64129;53.508;10.476;2023-04-24T14:38:45;2.00;;;1.83;;
75542;SDS011;64129;53.508;10.476;2023-04-24T14:41:12;1.50;;;1.40;;
75542;SDS011;64129;53.508;10.476;2023-04-24T14:43:39;2.05;;;1.85;;
75542;SDS011;64129;53.508;10.476;2023-04-24T14:46:06;1.95;;;1.85;;
75542;SDS011;64129;53.508;10.476;2023-04-24T14:48:32;3.30;;;1.90;;
75542;SDS011;64129;53.508;10.476;2023-04-24T14:50:59;2.50;;;1.95;;
75542;SDS011;64129;53.508;10.476;2023-04-24T14:53:25;1.70;;;1.60;;
75542;SDS011;64129;53.508;10.476;2023-04-24T14:55:52;1.60;;;1.50;;
75542;SDS011;64129;53.508;10.476;2023-04-24T14:58:19;3.13;;;1.92;;
75542;SDS011;64129;53.508;10.476;2023-04-24T15:00:46;2.03;;;1.83;;
75542;SDS011;64129;53.508;10.476;2023-04-24T15:03:12;3.97;;;1.90;;